Weather reports worldwide

Advertisment
Fuengirola, Spain (8480): temperature & dewpoint: 10.01.2018 20:00:00 - 16.01.2018 20:00:00 (CET)Fuengirola, Spain (8480): wind speed & gusts: 10.01.2018 20:00:00 - 16.01.2018 20:00:00 (CET)Fuengirola, Spain (8480): wind direction: 10.01.2018 20:00:00 - 16.01.2018 20:00:00 (CET)Fuengirola, Spain (8480): precipitation: 10.01.2018 20:00:00 - 16.01.2018 20:00:00 (CET)
Date & Time tt [°C] td [°C] ff [km/h] ff [kn] fx [km/h] fx [kn] dd rr [mm]
16.01.2018 20:00:00 13,4 10,0 0 0 5 3 N 0,0
16.01.2018 19:00:00 14,3 10,9 1 0 11 6 WSW -
16.01.2018 18:00:00 14,9 10,9 3 2 13 7 WSW 0,0
16.01.2018 17:00:00 15,4 11,0 3 2 14 8 WSW 0,0
16.01.2018 16:00:00 15,5 10,3 3 2 14 8 WSW 0,0
16.01.2018 15:00:00 14,8 10,2 4 2 21 11 WSW 0,0
16.01.2018 14:00:00 14,4 11,2 14 8 20 11 SSW 0,0
16.01.2018 13:00:00 13,7 11,4 10 5 17 9 SSW -
16.01.2018 12:00:00 13,5 11,4 5 3 15 8 SSW 0,0
16.01.2018 11:00:00 12,8 10,3 11 6 18 10 SSW 0,0
16.01.2018 10:00:00 9,4 7,2 6 3 14 8 WNW 0,0
16.01.2018 09:00:00 8,6 6,6 9 5 19 10 WNW 0,0
16.01.2018 08:00:00 8,5 6,8 8 5 16 9 W 0,0
16.01.2018 07:00:00 8,5 7,0 9 5 16 9 WNW -
16.01.2018 06:00:00 8,4 6,9 9 5 16 9 WNW 0,0
16.01.2018 05:00:00 8,3 6,8 9 5 17 9 WNW 0,0
16.01.2018 04:00:00 8,5 7,0 9 5 16 9 WNW 0,0
16.01.2018 03:00:00 8,6 7,1 7 4 13 7 NW 0,0
16.01.2018 02:00:00 9,1 7,4 4 2 11 6 WNW 0,0
16.01.2018 01:00:00 9,2 7,3 9 5 13 7 NW -
16.01.2018 00:00:00 9,5 7,5 7 4 14 7 NW 0,0
15.01.2018 23:00:00 10,0 7,8 6 4 13 7 WNW 0,0
15.01.2018 22:00:00 10,6 8,0 8 4 12 7 NW 0,0
15.01.2018 21:00:00 11,3 8,0 5 3 10 5 NW 0,0
15.01.2018 20:00:00 11,8 8,1 4 2 9 5 NNW 0,0
15.01.2018 19:00:00 13,0 9,1 7 4 13 7 NE -
15.01.2018 18:00:00 13,6 9,7 9 5 18 10 E 0,0
15.01.2018 17:00:00 13,9 9,7 13 7 19 10 ENE 0,0
15.01.2018 16:00:00 13,8 9,7 15 8 22 12 E 0,0
15.01.2018 15:00:00 13,5 9,2 14 8 23 12 ENE 0,0
15.01.2018 14:00:00 13,4 8,9 15 8 27 15 ENE 0,0
15.01.2018 13:00:00 13,8 8,9 15 8 25 13 E -
15.01.2018 12:00:00 13,0 7,7 13 7 21 11 ENE 0,0
15.01.2018 11:00:00 11,4 6,7 5 3 14 7 W 0,0
15.01.2018 10:00:00 9,9 6,1 8 4 15 8 W 0,0
15.01.2018 09:00:00 8,9 5,3 6 4 13 7 WNW 0,0
15.01.2018 08:00:00 9,4 5,2 8 4 17 9 NW 0,0
15.01.2018 07:00:00 9,2 5,2 6 3 16 8 WNW -
15.01.2018 06:00:00 9,6 5,6 7 4 21 11 WNW 0,0
15.01.2018 05:00:00 10,1 5,3 7 4 25 13 NW 0,0
15.01.2018 04:00:00 10,4 5,6 6 3 38 21 NNW 0,0
15.01.2018 03:00:00 10,0 6,2 9 5 36 19 W 0,0
15.01.2018 02:00:00 10,4 6,0 10 6 33 18 W 0,0
15.01.2018 01:00:00 10,7 6,8 3 1 20 11 WSW -
15.01.2018 00:00:00 10,0 6,9 5 3 16 9 NW 0,0
14.01.2018 23:00:00 9,8 7,2 1 1 12 7 S 0,0
14.01.2018 22:00:00 10,0 8,3 4 2 11 6 W 0,0
14.01.2018 21:00:00 10,1 9,2 4 2 10 6 W 0,0
14.01.2018 20:00:00 10,9 10,0 3 1 8 4 NW 0,0
14.01.2018 19:00:00 11,7 10,4 1 1 6 3 W -
14.01.2018 18:00:00 12,3 11,0 2 1 8 4 WSW 0,0
14.01.2018 17:00:00 11,8 11,0 2 1 10 5 WSW 0,0
14.01.2018 16:00:00 11,6 11,1 3 1 10 5 W 0,0
14.01.2018 15:00:00 11,2 10,6 4 2 11 6 WNW 0,0
14.01.2018 14:00:00 10,9 9,8 2 1 8 4 W 0,4
14.01.2018 13:00:00 11,0 9,4 3 1 10 5 WNW -
14.01.2018 12:00:00 11,3 9,7 2 1 6 3 W 0,0
14.01.2018 11:00:00 10,7 8,1 2 1 6 3 NW 0,0
14.01.2018 10:00:00 10,2 6,9 2 1 14 8 NW 0,0
14.01.2018 09:00:00 9,8 6,3 8 4 15 8 WNW 0,0
14.01.2018 08:00:00 9,3 5,9 8 4 16 9 WNW 0,0
14.01.2018 07:00:00 9,8 6,2 8 4 16 9 W -
14.01.2018 06:00:00 10,1 6,8 6 3 12 6 W 0,0
14.01.2018 05:00:00 9,5 6,4 7 4 15 8 W 0,0
14.01.2018 04:00:00 9,9 6,4 8 4 14 7 W 0,0
14.01.2018 03:00:00 11,0 7,3 3 1 13 7 W 0,0
14.01.2018 02:00:00 10,3 6,8 6 4 14 8 W 0,0
14.01.2018 01:00:00 11,3 7,2 7 4 14 7 W -
14.01.2018 00:00:00 12,1 7,4 6 3 13 7 W 0,0
13.01.2018 23:00:00 12,4 7,7 5 3 18 10 WNW 0,0
13.01.2018 22:00:00 12,3 8,4 4 2 15 8 NW 0,0
13.01.2018 21:00:00 11,7 10,9 4 2 17 9 W 0,0
13.01.2018 20:00:00 12,1 11,3 4 2 8 5 WNW 0,0
13.01.2018 19:00:00 12,5 11,7 2 1 10 5 NW -
13.01.2018 18:00:00 12,9 12,0 5 3 13 7 NNW 0,0
13.01.2018 17:00:00 13,0 12,1 0 0 15 8 SW 0,0
13.01.2018 16:00:00 13,4 11,3 6 4 17 9 W 0,0
13.01.2018 15:00:00 13,7 10,7 5 3 18 10 WSW 0,0
13.01.2018 14:00:00 13,4 9,8 3 2 13 7 WSW 0,0
13.01.2018 13:00:00 12,6 9,1 3 2 9 5 NW -
13.01.2018 12:00:00 11,7 8,2 3 2 8 5 WNW 0,0
13.01.2018 11:00:00 10,4 6,9 6 3 13 7 W 0,0
13.01.2018 10:00:00 9,4 6,0 8 4 13 7 NW 0,0
13.01.2018 09:00:00 9,4 5,8 7 4 13 7 WNW 0,0
13.01.2018 08:00:00 8,9 5,3 8 4 15 8 WNW 0,0
13.01.2018 07:00:00 8,8 5,4 8 4 16 8 WNW -
13.01.2018 06:00:00 8,9 5,3 7 4 15 8 NW 0,0
13.01.2018 05:00:00 9,2 5,6 6 3 17 9 WNW 0,0
13.01.2018 04:00:00 9,0 5,2 8 4 13 7 WNW 0,0
13.01.2018 03:00:00 9,0 5,0 7 4 13 7 NW 0,0
13.01.2018 02:00:00 9,4 5,0 5 3 12 7 NW 0,0
13.01.2018 01:00:00 9,5 5,1 9 5 13 7 NW -
13.01.2018 00:00:00 9,8 5,2 6 4 13 7 NW 0,0
12.01.2018 23:00:00 10,0 5,4 7 4 13 7 NW 0,0
12.01.2018 22:00:00 10,8 6,2 4 2 10 6 WNW 0,0
12.01.2018 21:00:00 11,3 6,2 8 4 13 7 NW 0,0
12.01.2018 20:00:00 12,2 7,1 4 2 9 5 W 0,0
12.01.2018 19:00:00 13,0 7,0 2 1 5 3 E -
12.01.2018 18:00:00 13,7 7,3 2 1 5 3 ENE 0,0
12.01.2018 17:00:00 14,9 7,5 4 2 6 4 SE 0,0
12.01.2018 16:00:00 15,1 7,4 3 2 7 4 S 0,0
12.01.2018 15:00:00 14,7 7,0 5 3 9 5 SE 0,0
12.01.2018 14:00:00 14,8 7,6 7 4 11 6 SSE 0,0
12.01.2018 13:00:00 14,2 7,5 6 3 12 7 SSE -
12.01.2018 12:00:00 13,4 6,1 3 2 11 6 E 0,0
12.01.2018 11:00:00 13,1 5,8 1 1 14 7 W 0,0
12.01.2018 10:00:00 12,1 5,5 4 2 18 10 W 0,0
12.01.2018 09:00:00 10,8 5,6 8 4 17 9 W 0,0
12.01.2018 08:00:00 10,2 5,4 9 5 13 7 NW 0,0
12.01.2018 07:00:00 10,9 5,5 9 5 17 9 W -
12.01.2018 06:00:00 12,2 5,8 2 1 34 18 N 0,0
12.01.2018 05:00:00 12,0 6,1 4 2 14 8 SSW 0,0
12.01.2018 04:00:00 11,8 6,1 9 5 14 8 W 0,0
12.01.2018 03:00:00 12,0 6,5 2 1 11 6 SW 0,0
12.01.2018 02:00:00 12,7 6,3 3 1 17 9 W 0,0
12.01.2018 01:00:00 13,0 6,1 6 3 21 11 NNW -
12.01.2018 00:00:00 14,3 6,7 15 8 36 19 N 0,0
11.01.2018 23:00:00 14,2 7,0 7 4 18 10 NW 0,0
11.01.2018 22:00:00 14,7 7,0 7 4 26 14 NNW 0,0
11.01.2018 21:00:00 15,0 8,0 5 3 27 14 SW 0,0
11.01.2018 20:00:00 15,1 7,9 11 6 31 17 S 0,0
11.01.2018 19:00:00 15,3 7,6 3 1 14 7 SSW -
11.01.2018 18:00:00 15,9 7,7 8 4 26 14 NNW 0,0
11.01.2018 17:00:00 16,7 7,6 10 5 34 18 NW 0,0
11.01.2018 16:00:00 16,4 7,6 15 8 39 21 NNW 0,0
11.01.2018 15:00:00 16,3 7,8 13 7 42 23 NW 0,0
11.01.2018 14:00:00 16,2 7,7 12 7 42 23 NNW 0,0
11.01.2018 13:00:00 15,4 7,7 6 4 31 17 NNW -
11.01.2018 12:00:00 14,5 7,1 3 2 21 11 W 0,0
11.01.2018 11:00:00 13,8 6,7 7 4 18 10 NNW 0,0
11.01.2018 10:00:00 12,7 5,9 4 2 21 11 NNW 0,0
11.01.2018 09:00:00 12,0 4,7 7 4 18 10 NNE 0,0
11.01.2018 08:00:00 12,1 4,6 2 1 16 9 NNE 0,0
11.01.2018 07:00:00 12,6 5,1 8 4 16 9 NE -
11.01.2018 06:00:00 13,3 6,4 3 1 35 19 W 0,0
11.01.2018 05:00:00 13,6 6,2 14 7 38 21 NNW 0,0
11.01.2018 04:00:00 13,8 6,9 8 4 28 15 NNW 0,0
11.01.2018 03:00:00 14,1 7,6 4 2 25 13 NNW 0,0
11.01.2018 02:00:00 14,9 7,7 8 4 35 19 NNW 0,0
11.01.2018 01:00:00 15,4 8,6 12 6 36 19 NNW -
11.01.2018 00:00:00 15,5 12,8 2 1 29 16 W 0,0
10.01.2018 23:00:00 15,7 13,0 11 6 39 21 W 0,0
10.01.2018 22:00:00 15,3 12,1 6 3 18 10 ESE 0,0
10.01.2018 21:00:00 15,4 11,8 2 1 16 9 NE 0,0
10.01.2018 20:00:00 16,1 11,7 5 3 31 17 WSW 0,0

tt = temperature
td = dewpoint
ff = wind speed
fx = gusts
dd = wind direction
rr = precipitation

Next stations